Time;durP1;ratioP1;P1;durP2;ratioP2;P2;SDS_P1;SDS_P2;PMS_P1;PMS_P2;Temp;Humidity;BMP_temperature;BMP_pressure;BME280_temperature;BME280_humidity;BME280_pressure;Samples;Min_cycle;Max_cycle;Signal;HPM_P1;HPM_P2
2023/02/17 00:22:55;;;;;;;32.22;20.88;;;9.80;99.90;;;;;;5116174;23;20101;-90
2023/02/17 00:27:02;;;;;;;31.70;21.48;;;9.80;99.90;;;;;;4875282;29;20040;-89
2023/02/17 00:47:47;;;;;;;39.58;25.42;;;9.80;99.90;;;;;;4767951;30;20119;-90
2023/02/17 00:54:32;;;;;;;40.00;26.70;;;9.80;99.90;;;;;;4718058;30;20506;-90
2023/02/17 01:01:22;;;;;;;41.35;28.13;;;9.80;99.90;;;;;;4673828;30;20141;-90
2023/02/17 01:04:48;;;;;;;36.33;25.23;;;9.80;99.90;;;;;;4664097;30;20141;-89
2023/02/17 01:08:03;;;;;;;41.85;27.27;;;9.80;99.90;;;;;;4651695;30;20057;-90
2023/02/17 07:08:11;;;;;;;53.05;25.45;;;9.70;99.90;;;;;;4791045;29;20112;-91
2023/02/17 07:10:37;;;;;;;56.03;25.70;;;9.80;99.90;;;;;;4784666;29;20038;-92
2023/02/17 07:13:05;;;;;;;52.15;25.98;;;9.80;99.90;;;;;;4784617;30;20043;-92
2023/02/17 07:15:31;;;;;;;50.70;25.15;;;9.80;99.90;;;;;;4780565;29;20050;-91
2023/02/17 07:17:59;;;;;;;51.33;26.48;;;9.80;99.90;;;;;;4786033;30;20461;-91
2023/02/17 07:20:25;;;;;;;59.65;26.27;;;9.90;99.90;;;;;;4782136;29;20471;-92
2023/02/17 07:22:51;;;;;;;53.88;26.35;;;9.90;99.90;;;;;;4807633;29;20075;-93
2023/02/17 07:25:16;;;;;;;50.72;25.63;;;9.90;99.90;;;;;;4790431;29;20109;-88
2023/02/17 07:27:42;;;;;;;54.53;25.17;;;9.90;99.90;;;;;;4805792;29;20441;-90
2023/02/17 07:30:08;;;;;;;49.53;24.45;;;9.90;99.90;;;;;;4803985;29;20050;-88
2023/02/17 07:32:34;;;;;;;48.50;24.60;;;9.90;99.90;;;;;;4788621;29;20050;-88
2023/02/17 07:35:00;;;;;;;54.47;26.65;;;9.90;99.90;;;;;;4806531;29;20404;-88
2023/02/17 07:37:25;;;;;;;58.80;26.77;;;10.00;99.90;;;;;;4789649;29;20039;-89
2023/02/17 07:39:51;;;;;;;48.80;25.92;;;10.00;99.90;;;;;;4789108;29;20137;-89
2023/02/17 07:42:17;;;;;;;53.03;25.15;;;10.00;99.90;;;;;;4787156;29;20057;-89
2023/02/17 07:44:42;;;;;;;50.30;25.45;;;10.00;99.90;;;;;;4785137;29;20046;-89
2023/02/17 07:47:08;;;;;;;54.65;25.95;;;10.00;99.90;;;;;;4789875;29;20053;-89
2023/02/17 07:49:34;;;;;;;50.05;25.95;;;10.00;99.90;;;;;;4806370;29;20046;-89
2023/02/17 07:51:59;;;;;;;42.63;24.25;;;10.10;99.90;;;;;;4790130;29;20092;-89
2023/02/17 07:54:25;;;;;;;54.53;25.25;;;10.10;99.90;;;;;;4785939;30;20061;-89
2023/02/17 07:56:50;;;;;;;53.78;24.67;;;10.10;99.90;;;;;;4786514;29;20039;-89
2023/02/17 07:59:16;;;;;;;49.90;25.33;;;10.10;99.90;;;;;;4805811;29;20215;-89
2023/02/17 08:01:42;;;;;;;44.85;23.58;;;10.10;99.90;;;;;;4789171;29;20058;-87
2023/02/17 08:04:07;;;;;;;49.20;25.25;;;10.20;99.90;;;;;;4790181;29;20049;-88
2023/02/17 08:06:33;;;;;;;53.60;25.73;;;10.20;99.90;;;;;;4805472;29;20557;-88
2023/02/17 08:14:28;;;;;;;44.08;23.83;;;10.30;99.90;;;;;;4822509;29;20050;-88
2023/02/17 08:16:55;;;;;;;55.47;23.75;;;10.30;99.90;;;;;;4805895;29;20051;-87
2023/02/17 08:19:21;;;;;;;51.30;24.00;;;10.20;99.90;;;;;;4828289;29;20108;-89
2023/02/17 08:21:47;;;;;;;45.63;23.23;;;10.30;99.90;;;;;;4832417;29;20487;-88
2023/02/17 08:24:12;;;;;;;39.40;21.70;;;10.30;99.90;;;;;;4828579;29;20054;-88
2023/02/17 08:26:38;;;;;;;45.70;21.52;;;10.30;99.90;;;;;;4823221;29;20050;-89
2023/02/17 08:29:04;;;;;;;38.70;20.30;;;10.30;99.90;;;;;;4828318;29;20472;-89
2023/02/17 08:31:33;;;;;;;40.95;21.50;;;10.30;99.90;;;;;;4824865;29;20081;-89
2023/02/17 08:34:00;;;;;;;40.50;20.98;;;10.40;99.90;;;;;;4823437;29;20042;-88
2023/02/17 08:36:27;;;;;;;42.35;20.05;;;10.30;99.90;;;;;;4823296;29;20117;-89
2023/02/17 08:38:53;;;;;;;41.05;20.55;;;10.40;99.90;;;;;;4818157;29;20053;-87
2023/02/17 08:41:21;;;;;;;36.05;19.73;;;10.40;99.90;;;;;;4816644;29;20054;-88
2023/02/17 08:43:47;;;;;;;37.03;19.08;;;10.40;99.90;;;;;;4823712;29;20050;-88
2023/02/17 08:46:13;;;;;;;37.85;17.73;;;10.40;99.90;;;;;;4822267;29;20080;-88
2023/02/17 08:48:40;;;;;;;33.00;18.33;;;10.50;99.90;;;;;;4824228;29;20463;-88
2023/02/17 08:51:06;;;;;;;33.80;17.98;;;10.50;99.90;;;;;;4823439;29;20555;-90
2023/02/17 08:53:33;;;;;;;29.65;16.70;;;10.40;99.90;;;;;;4823541;29;20133;-89
2023/02/17 08:55:58;;;;;;;34.13;16.80;;;10.50;99.90;;;;;;4822796;29;20460;-89
2023/02/17 08:58:24;;;;;;;33.50;18.23;;;10.50;99.90;;;;;;4822669;29;20050;-89
2023/02/17 09:00:50;;;;;;;29.40;15.95;;;10.50;99.90;;;;;;4816642;29;20058;-89
2023/02/17 09:03:16;;;;;;;25.65;15.85;;;10.50;99.90;;;;;;4806950;29;20408;-88
2023/02/17 09:05:42;;;;;;;28.13;15.98;;;10.50;99.90;;;;;;4825700;29;20073;-88
2023/02/17 09:08:09;;;;;;;27.67;15.30;;;10.60;99.90;;;;;;4823295;29;20039;-88
2023/02/17 09:10:35;;;;;;;25.42;15.07;;;10.60;99.90;;;;;;4824934;29;20129;-88
2023/02/17 09:13:01;;;;;;;27.15;15.10;;;10.60;99.90;;;;;;4824769;29;20091;-88
2023/02/17 09:15:27;;;;;;;24.85;14.82;;;10.60;99.90;;;;;;4826751;29;20082;-89
2023/02/17 09:17:52;;;;;;;28.80;14.10;;;10.60;99.90;;;;;;4822725;29;20057;-90
2023/02/17 09:20:18;;;;;;;29.63;15.30;;;10.60;99.90;;;;;;4822176;29;20496;-88
2023/02/17 09:22:44;;;;;;;26.55;13.88;;;10.70;99.90;;;;;;4827072;29;20049;-87
2023/02/17 09:25:09;;;;;;;28.83;14.20;;;10.70;99.90;;;;;;4823514;29;20060;-87
2023/02/17 09:27:35;;;;;;;27.48;13.40;;;10.70;99.90;;;;;;4825932;29;20047;-89
2023/02/17 09:30:01;;;;;;;25.63;13.20;;;10.70;99.90;;;;;;4817702;29;20130;-88
2023/02/17 09:32:26;;;;;;;22.10;12.52;;;10.70;99.90;;;;;;4822230;29;20049;-89
2023/02/17 09:34:52;;;;;;;23.65;12.60;;;10.70;99.90;;;;;;4828143;29;20048;-88
2023/02/17 09:37:19;;;;;;;25.20;12.07;;;10.70;99.90;;;;;;4826364;29;20448;-88
2023/02/17 09:39:46;;;;;;;27.05;12.55;;;10.80;99.90;;;;;;4825762;29;20046;-89
2023/02/17 09:42:20;;;;;;;25.20;12.57;;;10.70;99.90;;;;;;4821973;29;20043;-89
2023/02/17 09:45:16;;;;;;;26.85;12.10;;;10.80;99.90;;;;;;4821934;29;20038;-89
2023/02/17 09:47:55;;;;;;;23.42;11.48;;;10.80;99.90;;;;;;4871885;24;20145;-89
2023/02/17 09:50:27;;;;;;;25.15;11.95;;;10.70;99.90;;;;;;4856017;29;20060;-89
2023/02/17 09:53:03;;;;;;;24.83;11.82;;;10.80;99.90;;;;;;4854943;29;20050;-89
2023/02/17 09:55:42;;;;;;;19.63;11.00;;;10.80;99.90;;;;;;4857380;29;20052;-89
2023/02/17 09:58:16;;;;;;;23.98;11.30;;;10.70;99.90;;;;;;4857751;29;20084;-88
2023/02/17 10:00:50;;;;;;;24.08;11.57;;;10.80;99.90;;;;;;4864028;29;20061;-90
2023/02/17 10:03:29;;;;;;;;;;;10.80;99.90;;;;;;4863685;29;20502;-90
2023/02/17 10:06:21;;;;;;;22.98;10.90;;;10.70;99.90;;;;;;4854356;29;20365;-89
2023/02/17 10:09:01;;;;;;;22.00;10.25;;;10.70;99.90;;;;;;4859648;29;20058;-90
2023/02/17 10:11:32;;;;;;;22.13;10.35;;;10.70;99.90;;;;;;4857997;29;20041;-89
2023/02/17 10:14:06;;;;;;;22.55;10.20;;;10.80;99.90;;;;;;4859854;29;20054;-90
2023/02/17 10:16:39;;;;;;;21.98;10.02;;;10.80;99.90;;;;;;4864357;29;20051;-90
2023/02/17 10:19:13;;;;;;;22.20;10.20;;;10.80;99.90;;;;;;4855250;29;20048;-88
2023/02/17 10:21:45;;;;;;;22.15;10.45;;;10.80;99.90;;;;;;4859624;29;20191;-90
2023/02/17 10:24:10;;;;;;;20.80;9.68;;;10.80;99.90;;;;;;4854764;29;20050;-88
2023/02/17 10:26:58;;;;;;;21.00;9.85;;;10.80;99.90;;;;;;4863079;29;20067;-88
2023/02/17 10:29:30;;;;;;;20.30;9.40;;;10.80;99.90;;;;;;4847703;29;20045;-89
2023/02/17 10:32:09;;;;;;;22.63;9.73;;;10.80;99.90;;;;;;4862459;29;20045;-89
2023/02/17 10:34:36;;;;;;;19.17;9.55;;;10.80;99.90;;;;;;4861131;29;20083;-88
2023/02/17 10:37:16;;;;;;;23.95;9.43;;;10.90;99.90;;;;;;4862619;29;20081;-88
2023/02/17 10:39:50;;;;;;;21.95;8.25;;;10.90;99.90;;;;;;4862091;29;20050;-88
2023/02/17 10:42:37;;;;;;;19.10;8.82;;;10.90;99.90;;;;;;4867164;29;20460;-88
2023/02/17 10:45:20;;;;;;;18.35;8.40;;;10.90;99.90;;;;;;4856805;29;20054;-88
2023/02/17 10:47:46;;;;;;;20.98;8.20;;;10.90;99.90;;;;;;4861857;29;20396;-87
2023/02/17 10:50:22;;;;;;;16.55;7.40;;;10.90;99.90;;;;;;4859729;29;20046;-88
2023/02/17 10:52:49;;;;;;;20.20;7.82;;;10.90;99.90;;;;;;4862157;29;20081;-87
2023/02/17 10:55:32;;;;;;;18.42;7.43;;;11.00;99.90;;;;;;4860121;29;20085;-87
2023/02/17 10:58:22;;;;;;;19.63;7.30;;;10.90;99.90;;;;;;4863092;29;20105;-93
2023/02/17 11:00:55;;;;;;;17.92;7.45;;;11.00;99.90;;;;;;4858093;29;20050;-91
2023/02/17 11:03:24;;;;;;;20.60;7.30;;;11.00;99.90;;;;;;4860640;29;20049;-90
2023/02/17 11:06:01;;;;;;;20.25;7.47;;;11.00;99.90;;;;;;4860728;29;20053;-90
2023/02/17 11:08:35;;;;;;;16.50;7.10;;;11.00;99.90;;;;;;4861005;29;20048;-89
2023/02/17 11:11:20;;;;;;;17.23;6.88;;;11.00;99.90;;;;;;4855617;29;20508;-89
2023/02/17 11:14:07;;;;;;;23.90;10.25;;;11.00;99.90;;;;;;4860842;29;20085;-89
2023/02/17 11:16:38;;;;;;;17.88;7.18;;;11.10;99.90;;;;;;4859629;29;20048;-89
2023/02/17 11:19:05;;;;;;;14.77;6.47;;;11.10;99.90;;;;;;4860730;29;20128;-90
2023/02/17 11:21:35;;;;;;;16.88;6.72;;;11.00;99.90;;;;;;4860246;29;20779;-90
2023/02/17 11:24:04;;;;;;;16.25;6.57;;;11.10;99.90;;;;;;4861089;29;20049;-89
2023/02/17 11:26:33;;;;;;;18.75;6.43;;;11.10;99.90;;;;;;4861905;29;20355;-91
2023/02/17 11:29:17;;;;;;;17.75;6.50;;;11.10;99.90;;;;;;4859764;29;20406;-89
2023/02/17 11:32:05;;;;;;;14.48;5.68;;;11.10;99.90;;;;;;4860119;29;20057;-89
2023/02/17 11:34:33;;;;;;;16.30;5.78;;;11.10;99.90;;;;;;4858965;29;20091;-90
2023/02/17 11:37:02;;;;;;;15.48;5.70;;;11.10;99.90;;;;;;4860583;29;20052;-90
2023/02/17 11:39:28;;;;;;;18.60;5.38;;;11.10;99.90;;;;;;4859383;29;20089;-90
2023/02/17 11:41:56;;;;;;;16.00;5.38;;;11.10;99.90;;;;;;4847575;29;20076;-88
2023/02/17 11:44:27;;;;;;;14.38;5.18;;;11.10;99.90;;;;;;4861587;29;20041;-90
2023/02/17 11:47:04;;;;;;;18.38;5.70;;;11.10;99.90;;;;;;4859195;29;20483;-89
2023/02/17 11:49:37;;;;;;;16.77;6.40;;;11.10;99.90;;;;;;4860678;29;20156;-90
2023/02/17 11:52:06;;;;;;;16.95;5.53;;;11.10;99.90;;;;;;4860698;29;20124;-90
2023/02/17 11:54:52;;;;;;;13.57;4.97;;;11.10;99.90;;;;;;4861178;29;20207;-91
2023/02/17 11:57:33;;;;;;;17.77;5.13;;;11.10;99.90;;;;;;4860629;29;20098;-90
2023/02/17 12:00:30;;;;;;;18.13;5.45;;;11.10;99.90;;;;;;4859921;29;20403;-90
2023/02/17 12:03:14;;;;;;;12.18;4.82;;;11.10;99.90;;;;;;4795184;29;20065;-89
2023/02/17 12:06:09;;;;;;;18.20;5.28;;;11.10;99.90;;;;;;4859685;29;20061;-90
2023/02/17 12:09:09;;;;;;;18.15;5.20;;;11.20;99.90;;;;;;4859519;29;20054;-90
2023/02/17 12:11:59;;;;;;;14.55;3.85;;;11.20;99.90;;;;;;4860358;29;20044;-91
2023/02/17 12:14:48;;;;;;;16.55;3.78;;;11.20;99.90;;;;;;4861481;29;20132;-91
2023/02/17 12:17:44;;;;;;;18.83;4.18;;;11.30;99.90;;;;;;4861768;29;20084;-91
2023/02/17 12:20:49;;;;;;;16.33;4.10;;;11.30;99.90;;;;;;4859986;29;20053;-92
2023/02/17 12:23:34;;;;;;;10.48;2.90;;;11.30;99.90;;;;;;4860199;29;20402;-90
2023/02/17 12:26:28;;;;;;;12.40;2.95;;;11.30;99.90;;;;;;4859945;29;20049;-90
2023/02/17 12:29:18;;;;;;;13.30;3.33;;;11.40;99.90;;;;;;4860467;29;20496;-91
2023/02/17 12:31:55;;;;;;;10.40;2.95;;;11.40;99.90;;;;;;4855583;29;20042;-91
2023/02/17 12:34:32;;;;;;;14.18;3.53;;;11.40;99.90;;;;;;4845807;29;20053;-90
2023/02/17 12:37:00;;;;;;;14.50;2.90;;;11.50;99.90;;;;;;4861020;29;20089;-91
2023/02/17 12:39:33;;;;;;;11.68;3.15;;;11.50;99.90;;;;;;4860064;29;20132;-91
2023/02/17 12:42:05;;;;;;;15.32;3.25;;;11.50;99.90;;;;;;4859528;29;20045;-92
2023/02/17 12:44:44;;;;;;;14.52;2.90;;;11.60;99.90;;;;;;4860786;29;20057;-91
2023/02/17 12:47:36;;;;;;;18.20;3.20;;;11.60;99.90;;;;;;4855365;29;20075;-91
2023/02/17 12:50:02;;;;;;;12.63;3.03;;;11.60;99.90;;;;;;4840528;29;20057;-91
2023/02/17 12:52:33;;;;;;;12.80;2.88;;;11.60;99.90;;;;;;4861155;29;20045;-92
2023/02/17 12:55:26;;;;;;;15.30;3.20;;;11.60;99.90;;;;;;4841296;29;20054;-90
2023/02/17 12:57:59;;;;;;;10.30;2.83;;;11.60;99.90;;;;;;4842926;29;20038;-90
2023/02/17 13:00:49;;;;;;;11.95;2.75;;;11.60;99.90;;;;;;4841692;29;20566;-88
2023/02/17 13:03:15;;;;;;;15.13;3.13;;;11.60;99.90;;;;;;4845004;29;20077;-90
2023/02/17 13:05:50;;;;;;;12.70;2.42;;;11.70;99.90;;;;;;4862469;29;20083;-91
2023/02/17 13:08:20;;;;;;;12.55;2.70;;;11.60;99.90;;;;;;4844800;29;20080;-91
2023/02/17 13:10:46;;;;;;;16.08;3.28;;;11.60;99.90;;;;;;4860595;29;20044;-90
2023/02/17 13:13:26;;;;;;;12.35;3.00;;;11.70;99.90;;;;;;4860845;29;20057;-91
2023/02/17 13:16:02;;;;;;;12.93;2.70;;;11.70;99.90;;;;;;4844607;29;20061;-91
2023/02/17 13:18:30;;;;;;;13.38;3.22;;;11.70;99.90;;;;;;4843710;29;20149;-90
2023/02/17 13:21:16;;;;;;;12.05;2.80;;;11.70;99.90;;;;;;4861244;29;20414;-92
2023/02/17 13:23:44;;;;;;;16.75;3.20;;;11.70;99.90;;;;;;4860297;29;20091;-92
2023/02/17 13:26:22;;;;;;;12.60;2.60;;;11.80;99.90;;;;;;4844868;29;20053;-92
2023/02/17 13:28:52;;;;;;;13.00;2.70;;;11.80;99.90;;;;;;4845140;29;20053;-91
2023/02/17 13:31:20;;;;;;;12.40;3.22;;;11.80;99.90;;;;;;4861034;29;20141;-92
2023/02/17 13:33:50;;;;;;;12.35;3.17;;;11.80;99.90;;;;;;4861361;29;20124;-92
2023/02/17 13:36:19;;;;;;;12.65;3.20;;;11.80;99.90;;;;;;4861571;29;20046;-92
2023/02/17 13:38:54;;;;;;;13.80;3.33;;;11.80;99.90;;;;;;4844386;29;20117;-93
2023/02/17 13:41:20;;;;;;;11.73;2.60;;;11.80;99.90;;;;;;4844205;29;20052;-92
2023/02/17 13:43:45;;;;;;;11.50;3.08;;;11.80;99.90;;;;;;4844963;29;20050;-93
2023/02/17 13:46:18;;;;;;;12.68;2.80;;;11.80;99.90;;;;;;4860977;29;20042;-91
2023/02/17 13:48:44;;;;;;;19.48;4.93;;;11.80;99.90;;;;;;4853449;29;20084;-93
2023/02/17 13:51:25;;;;;;;15.27;4.20;;;11.90;99.90;;;;;;4864814;29;20418;-93
2023/02/17 13:53:51;;;;;;;14.32;3.83;;;11.80;99.90;;;;;;4865926;29;20052;-92
2023/02/17 13:56:27;;;;;;;15.50;3.10;;;11.90;99.90;;;;;;4866590;29;20053;-93
2023/02/17 13:58:53;;;;;;;12.85;3.15;;;11.90;99.90;;;;;;4870588;29;20072;-93
2023/02/17 14:01:25;;;;;;;12.98;2.78;;;11.90;99.90;;;;;;4864335;29;20077;-94
2023/02/17 14:03:54;;;;;;;15.70;3.30;;;11.90;99.90;;;;;;4864348;29;20052;-93
2023/02/17 14:06:34;;;;;;;11.80;3.20;;;11.90;99.90;;;;;;4846919;29;20120;-92
2023/02/17 14:09:18;;;;;;;12.25;3.72;;;11.90;99.90;;;;;;4864636;29;20033;-92
2023/02/17 14:11:44;;;;;;;8.55;2.60;;;11.90;99.90;;;;;;4864290;29;20229;-92
2023/02/17 14:14:11;;;;;;;12.07;3.05;;;11.90;99.90;;;;;;4847501;29;20041;-91
2023/02/17 14:16:39;;;;;;;13.73;2.97;;;11.90;99.90;;;;;;4864510;29;20046;-91
2023/02/17 14:19:11;;;;;;;12.75;2.80;;;11.90;99.90;;;;;;4847746;29;20077;-93
2023/02/17 14:21:55;;;;;;;12.65;3.10;;;11.90;99.90;;;;;;4863275;29;20101;-92
2023/02/17 14:24:25;;;;;;;;;;;11.90;99.90;;;;;;4848050;29;20090;-92
2023/02/17 14:26:56;;;;;;;11.18;2.40;;;11.90;99.90;;;;;;4847498;29;19956;-92
2023/02/17 14:29:22;;;;;;;13.02;2.58;;;11.90;99.90;;;;;;4846036;29;20042;-91
2023/02/17 14:31:50;;;;;;;15.18;2.97;;;11.90;99.90;;;;;;4846891;29;20046;-91
2023/02/17 14:34:28;;;;;;;11.35;2.90;;;11.90;99.90;;;;;;4862748;29;20078;-89
2023/02/17 14:36:54;;;;;;;13.73;3.38;;;12.00;99.90;;;;;;4852326;29;20501;-89
2023/02/17 14:39:21;;;;;;;14.68;3.30;;;12.00;99.90;;;;;;4858126;29;20558;-89
2023/02/17 14:41:47;;;;;;;9.85;3.13;;;12.00;99.90;;;;;;4880790;29;20096;-89
2023/02/17 14:44:12;;;;;;;12.43;2.60;;;12.00;99.90;;;;;;4847234;29;20049;-89
2023/02/17 14:46:38;;;;;;;11.73;2.53;;;12.00;99.90;;;;;;4846832;29;20045;-90
2023/02/17 14:49:04;;;;;;;8.38;2.25;;;12.00;99.90;;;;;;4862326;29;20156;-89
2023/02/17 14:51:35;;;;;;;11.40;2.47;;;12.00;99.90;;;;;;4862811;29;20049;-90
2023/02/17 14:54:03;;;;;;;8.38;2.60;;;12.00;99.90;;;;;;4862292;29;20080;-90
2023/02/17 14:56:40;;;;;;;10.45;2.67;;;12.00;99.90;;;;;;4844364;29;20590;-89
2023/02/17 14:59:06;;;;;;;12.23;2.90;;;12.00;99.90;;;;;;4858218;29;20041;-89
2023/02/17 15:01:31;;;;;;;12.65;2.38;;;12.10;99.90;;;;;;4851943;29;20052;-89
2023/02/17 15:03:57;;;;;;;11.43;2.50;;;12.10;99.90;;;;;;4857394;29;20038;-89
2023/02/17 15:06:38;;;;;;;13.38;2.65;;;12.10;99.90;;;;;;4861362;29;20089;-89
2023/02/17 15:09:08;;;;;;;15.82;2.72;;;12.00;99.90;;;;;;4856315;29;20059;-89
2023/02/17 15:11:35;;;;;;;14.32;2.58;;;12.10;99.90;;;;;;4865304;29;20045;-89
2023/02/17 15:14:02;;;;;;;14.45;3.22;;;12.10;99.90;;;;;;4862237;29;20561;-91
2023/02/17 15:16:28;;;;;;;16.35;3.05;;;12.00;99.90;;;;;;4861562;29;20048;-89
2023/02/17 15:18:54;;;;;;;16.17;2.85;;;12.10;99.90;;;;;;4860568;29;20057;-90
2023/02/17 15:21:24;;;;;;;15.63;3.00;;;12.00;99.90;;;;;;4860936;29;20070;-89
2023/02/17 15:23:50;;;;;;;21.73;2.92;;;12.00;99.90;;;;;;4857134;29;20460;-90
2023/02/17 15:26:16;;;;;;;19.05;3.10;;;12.00;99.90;;;;;;4852204;29;20061;-89
2023/02/17 15:28:42;;;;;;;13.88;2.95;;;11.90;99.90;;;;;;4860748;29;20049;-91
2023/02/17 15:31:11;;;;;;;19.38;3.10;;;11.90;99.90;;;;;;4856829;29;20085;-90
2023/02/17 15:33:37;;;;;;;17.83;2.97;;;11.90;99.90;;;;;;4857152;29;20088;-90
2023/02/17 15:36:03;;;;;;;14.38;2.75;;;11.80;99.90;;;;;;4864925;29;20041;-90
2023/02/17 15:38:28;;;;;;;15.20;2.80;;;11.80;99.90;;;;;;4857061;29;20140;-90
2023/02/17 15:40:57;;;;;;;18.75;3.08;;;11.70;99.90;;;;;;4860211;29;20128;-89
2023/02/17 15:43:30;;;;;;;15.57;2.80;;;11.70;99.90;;;;;;4859906;29;20053;-90
2023/02/17 15:45:56;;;;;;;12.63;2.70;;;11.70;99.90;;;;;;4860163;29;20038;-91
2023/02/17 15:48:28;;;;;;;16.00;3.08;;;11.70;99.90;;;;;;4875233;29;20098;-90
2023/02/17 15:50:54;;;;;;;16.95;2.97;;;11.60;99.90;;;;;;4859408;29;20064;-90
2023/02/17 15:53:20;;;;;;;20.85;5.32;;;11.50;99.90;;;;;;4857170;29;20042;-90
2023/02/17 15:55:47;;;;;;;16.38;4.40;;;11.50;99.90;;;;;;4858794;29;20054;-89
2023/02/17 15:58:18;;;;;;;17.05;2.60;;;11.40;99.90;;;;;;4861208;29;20069;-92
2023/02/17 16:00:45;;;;;;;11.07;2.53;;;11.40;99.90;;;;;;4861175;29;20132;-88
2023/02/17 16:03:14;;;;;;;15.95;3.13;;;11.40;99.90;;;;;;4855639;29;20125;-88
2023/02/17 16:05:40;;;;;;;13.27;2.42;;;11.30;99.90;;;;;;4851697;29;20045;-89
2023/02/17 16:08:09;;;;;;;13.75;2.28;;;11.30;99.90;;;;;;4861084;29;20038;-88
2023/02/17 16:10:35;;;;;;;14.13;2.78;;;11.20;99.90;;;;;;4851459;29;20042;-88
2023/02/17 16:13:01;;;;;;;16.27;2.85;;;11.20;99.90;;;;;;4856056;29;20144;-89
2023/02/17 16:15:30;;;;;;;15.18;2.72;;;11.10;99.90;;;;;;4857234;29;20514;-92
2023/02/17 16:17:57;;;;;;;14.95;2.60;;;11.10;99.90;;;;;;4851462;29;20086;-90
2023/02/17 16:20:31;;;;;;;16.48;2.95;;;11.00;99.90;;;;;;4859573;29;20037;-90
2023/02/17 16:33:50;;;;;;;13.57;2.65;;;10.80;99.80;;;;;;4838522;23;20141;-95
2023/02/17 16:36:18;;;;;;;16.60;2.67;;;10.70;99.90;;;;;;4854601;29;20140;-92
2023/02/17 16:38:47;;;;;;;16.08;2.53;;;10.70;99.80;;;;;;4861161;29;20049;-92
2023/02/17 16:41:14;;;;;;;13.93;2.45;;;10.70;99.50;;;;;;4860309;29;20049;-91
2023/02/17 16:43:43;;;;;;;11.73;2.17;;;10.60;99.80;;;;;;4874375;29;20042;-93
2023/02/17 16:46:32;;;;;;;15.02;2.85;;;10.60;99.50;;;;;;4853902;29;20133;-90
2023/02/17 16:49:02;;;;;;;16.25;2.42;;;10.50;99.60;;;;;;4859324;29;20490;-90
2023/02/17 16:51:31;;;;;;;18.88;2.60;;;10.50;99.20;;;;;;4859280;29;20045;-89
2023/02/17 16:53:56;;;;;;;18.45;2.90;;;10.50;99.60;;;;;;4859081;29;20049;-89
2023/02/17 16:56:34;;;;;;;18.60;2.70;;;10.50;99.40;;;;;;4858949;29;20049;-90
2023/02/17 16:58:59;;;;;;;17.70;3.08;;;10.40;99.50;;;;;;4859488;29;20272;-90
2023/02/17 17:01:25;;;;;;;16.10;3.05;;;10.50;99.60;;;;;;4859561;29;20136;-94
2023/02/17 17:04:04;;;;;;;17.85;3.22;;;10.40;99.70;;;;;;4857645;29;20041;-93
2023/02/17 17:06:42;;;;;;;15.70;2.92;;;10.40;99.40;;;;;;4855881;24;20054;-92
2023/02/17 17:09:57;;;;;;;14.10;2.70;;;10.30;99.90;;;;;;4842922;29;20395;-91
2023/02/17 17:12:42;;;;;;;20.02;2.95;;;10.30;99.60;;;;;;4815525;29;20057;-90
2023/02/17 17:15:26;;;;;;;21.63;3.25;;;10.30;99.90;;;;;;4825605;29;20074;-89
2023/02/17 17:17:57;;;;;;;15.93;2.88;;;10.30;99.60;;;;;;4834905;29;20042;-90
2023/02/17 17:20:29;;;;;;;17.58;3.40;;;10.20;99.80;;;;;;4835437;29;20046;-87
2023/02/17 17:23:03;;;;;;;15.85;3.28;;;10.20;99.90;;;;;;4838082;29;20086;-93
2023/02/17 17:25:29;;;;;;;15.38;3.22;;;10.10;99.90;;;;;;4838441;29;20046;-91
2023/02/17 17:27:56;;;;;;;16.13;2.83;;;10.10;99.90;;;;;;4835236;29;20111;-89
2023/02/17 17:30:30;;;;;;;14.80;3.55;;;10.10;99.90;;;;;;4842613;29;20130;-90
2023/02/17 17:32:56;;;;;;;14.32;2.80;;;10.00;99.90;;;;;;4834675;29;20046;-88
2023/02/17 17:35:21;;;;;;;20.88;3.17;;;10.10;99.90;;;;;;4849123;29;20129;-90
2023/02/17 17:37:47;;;;;;;21.55;3.40;;;10.00;99.90;;;;;;4854929;29;20049;-90
2023/02/17 17:40:22;;;;;;;15.23;2.72;;;10.00;99.90;;;;;;4835330;29;20137;-88
2023/02/17 17:42:48;;;;;;;17.20;3.13;;;10.00;99.90;;;;;;4844739;29;20050;-89
2023/02/17 17:45:15;;;;;;;17.95;2.97;;;9.90;99.90;;;;;;4827018;29;20059;-90
2023/02/17 17:47:41;;;;;;;16.65;2.95;;;9.90;99.90;;;;;;4831917;29;20091;-90
2023/02/17 17:50:10;;;;;;;16.25;2.85;;;9.80;99.80;;;;;;4827002;29;20050;-87
2023/02/17 17:52:36;;;;;;;17.38;3.20;;;9.80;99.90;;;;;;4825565;29;20039;-87
2023/02/17 17:55:01;;;;;;;19.13;2.80;;;9.80;99.60;;;;;;4825810;29;20515;-88
2023/02/17 17:57:27;;;;;;;15.98;2.75;;;9.70;99.70;;;;;;4825948;29;20058;-89
2023/02/17 17:59:53;;;;;;;14.60;2.60;;;9.70;99.80;;;;;;4827587;29;20050;-87
2023/02/17 18:02:18;;;;;;;12.38;2.33;;;9.70;99.80;;;;;;4847199;29;20045;-88
2023/02/17 18:04:44;;;;;;;15.00;2.65;;;9.70;99.90;;;;;;4843993;29;20129;-89
2023/02/17 18:07:10;;;;;;;12.88;2.22;;;9.70;99.90;;;;;;4844933;29;20125;-89
2023/02/17 18:09:37;;;;;;;13.88;2.60;;;9.60;99.90;;;;;;4853797;29;20046;-88
2023/02/17 18:12:13;;;;;;;14.68;2.42;;;9.60;99.90;;;;;;4839476;29;20058;-89
2023/02/17 18:14:40;;;;;;;13.38;2.70;;;9.60;99.80;;;;;;4827106;29;20054;-90
2023/02/17 18:17:07;;;;;;;15.90;2.80;;;9.50;99.60;;;;;;4831409;29;20133;-88
2023/02/17 18:19:44;;;;;;;13.15;2.33;;;9.50;99.90;;;;;;4866462;24;20525;-89
2023/02/17 18:22:10;;;;;;;14.65;2.70;;;9.50;99.90;;;;;;4855228;29;20056;-87
2023/02/17 18:24:36;;;;;;;11.52;2.08;;;9.40;99.90;;;;;;4864206;29;20045;-88
2023/02/17 18:27:17;;;;;;;14.90;2.33;;;9.40;99.70;;;;;;4860881;29;20058;-90
2023/02/17 18:29:55;;;;;;;11.60;2.40;;;9.40;99.70;;;;;;4844544;29;20143;-88
2023/02/17 18:32:24;;;;;;;12.85;2.28;;;9.30;99.60;;;;;;4851544;29;20482;-89
2023/02/17 18:34:49;;;;;;;14.60;2.47;;;9.30;99.90;;;;;;4856226;29;20057;-90
2023/02/17 18:37:17;;;;;;;14.55;2.40;;;9.20;99.60;;;;;;4849781;29;20042;-91
2023/02/17 18:39:43;;;;;;;13.35;2.80;;;9.30;99.50;;;;;;4838280;29;20133;-89
2023/02/17 18:42:09;;;;;;;18.35;3.08;;;9.20;99.60;;;;;;4860853;29;20073;-90
2023/02/17 18:44:48;;;;;;;16.90;2.50;;;9.20;99.70;;;;;;4860147;29;20501;-88
2023/02/17 18:47:13;;;;;;;13.68;2.63;;;9.20;99.20;;;;;;4860124;29;20042;-89
2023/02/17 18:49:54;;;;;;;15.57;2.33;;;9.10;99.60;;;;;;4852682;29;20053;-89
2023/02/17 18:52:20;;;;;;;12.10;1.98;;;9.10;99.30;;;;;;4861129;29;20042;-91
2023/02/17 18:54:58;;;;;;;16.45;2.63;;;9.10;99.50;;;;;;4850158;29;20054;-88
2023/02/17 18:57:33;;;;;;;13.40;1.95;;;9.00;99.00;;;;;;4859565;29;20045;-89
2023/02/17 18:59:59;;;;;;;15.25;2.90;;;9.00;99.50;;;;;;4848955;29;20140;-87
2023/02/17 19:02:24;;;;;;;12.75;2.33;;;9.00;99.50;;;;;;4851344;29;20233;-87
2023/02/17 19:04:54;;;;;;;18.05;2.80;;;9.00;99.60;;;;;;4858072;29;20319;-87
2023/02/17 19:07:20;;;;;;;14.77;2.60;;;9.00;99.40;;;;;;4855690;29;20486;-88
2023/02/17 19:09:50;;;;;;;16.23;2.25;;;8.90;99.50;;;;;;4860302;29;20045;-89
2023/02/17 19:12:16;;;;;;;13.75;2.55;;;8.90;99.40;;;;;;4858968;29;20041;-87
2023/02/17 19:14:43;;;;;;;14.75;2.50;;;8.90;99.90;;;;;;4859209;29;20055;-87
2023/02/17 19:17:10;;;;;;;15.15;3.33;;;8.90;99.90;;;;;;4854895;29;20071;-87
2023/02/17 19:19:40;;;;;;;19.85;5.90;;;8.80;99.90;;;;;;4855010;29;20054;-88
2023/02/17 19:22:08;;;;;;;16.67;3.25;;;8.80;99.80;;;;;;4858600;29;20050;-88
2023/02/17 19:24:36;;;;;;;20.42;4.18;;;8.80;99.90;;;;;;4858937;29;20047;-87
2023/02/17 19:27:05;;;;;;;11.98;2.60;;;8.80;99.80;;;;;;4858313;29;20833;-88
2023/02/17 19:29:31;;;;;;;15.63;2.63;;;8.80;99.90;;;;;;4858493;29;20102;-87
2023/02/17 19:31:58;;;;;;;15.63;2.92;;;8.70;99.90;;;;;;4857735;29;20051;-87
2023/02/17 19:34:25;;;;;;;19.60;3.30;;;8.70;99.90;;;;;;4855400;29;20049;-87
2023/02/17 19:36:50;;;;;;;16.40;3.13;;;8.70;99.90;;;;;;4857804;29;20136;-88
2023/02/17 19:39:16;;;;;;;18.00;3.35;;;8.70;99.90;;;;;;4855487;29;20129;-87
2023/02/17 19:41:41;;;;;;;20.75;3.15;;;8.70;99.90;;;;;;4860281;29;20049;-88
2023/02/17 19:44:08;;;;;;;16.35;3.05;;;8.70;99.90;;;;;;4858087;29;20116;-88
2023/02/17 19:46:34;;;;;;;17.05;2.95;;;8.60;99.90;;;;;;4860020;29;20049;-87
2023/02/17 19:48:59;;;;;;;16.92;3.00;;;8.60;99.90;;;;;;4856528;29;20399;-88
2023/02/17 19:51:25;;;;;;;14.23;3.15;;;8.60;99.90;;;;;;4855786;29;20486;-88
2023/02/17 19:53:51;;;;;;;17.58;2.90;;;8.60;99.90;;;;;;4860129;29;20395;-88
2023/02/17 19:56:22;;;;;;;17.95;3.53;;;8.60;99.90;;;;;;4854592;29;20123;-89
2023/02/17 19:58:49;;;;;;;15.52;2.90;;;8.60;99.90;;;;;;4852368;29;20081;-89
2023/02/17 20:01:27;;;;;;;17.83;3.30;;;8.50;99.90;;;;;;4859812;29;20053;-88
2023/02/17 20:03:54;;;;;;;20.02;3.42;;;8.50;99.90;;;;;;4858081;29;20052;-89